Hicksville, OH (43526)

2:17 AM EDT on July 22, 2017 (GMT -0400)
Hicksville | | Change Station
Active Advisory: Flood Watch Active Notice: Flood Watch

Elev 774 ft 41.30 °N, 84.76 °W | Updated 22 seconds ago

Mostly Cloudy
Mostly Cloudy
74.3 °F
Feels Like 71 °F
N
0.0
Wind Variable Wind from NNE
Gusts 0.0 mph

Today
High -- | Low -- °F
--% Chance of Precip.
Yesterday
High -- | Low -- °F
Precip. -- in
Pressure 29.95 in
Visibility 10.0 miles
Clouds Clear
Heat Index 71 °F
Dew Point 74 °F
Humidity 99%
Rainfall 0.00 in
Snow Depth Not available.
6:25 AM 9:05 PM
Waning Crescent, 2% visible
METAR KGWB 220550Z AUTO 00000KT 10SM -RA CLR 23/21 A2995 RMK AO2
Pressure 29.95 in
Visibility 10.0 miles
Clouds Clear
Heat Index 71 °F
Dew Point 74 °F
Humidity 99%
Rainfall 0.00 in
Snow Depth Not available.
6:25 AM 9:05 PM
Waning Crescent, 2% visible
METAR KGWB 220550Z AUTO 00000KT 10SM -RA CLR 23/21 A2995 RMK AO2

Get Your Daily Forecast Email!

Thanks for signing up!

Be on the lookout for a verification email in your inbox.

You'll start receiving severe weather alerts in your inbox..

×

10-Day Weather Forecast

Almanac

Astronomy

Jul. 22, 2017 Rise Set
Actual Time
Civil Twilight
Nautical Twilight
Astronomical Twilight
Moon
Length of Visible Light
Length of Day
Tomorrow will be .
, % of the Moon is Illuminated

Today's Extremes

State Highs State Lows

Community

WunderPhotos

Category 6

Welcome to Category 6. This is the collective home for Weather Underground's featured writeups by Dr. Jeff Masters (right), Bob Henson (left), Chris Burt, and other regular contributors.

Nearby

Air Quality

  Air Quality AQ Index Pollutant
Not available.

Snow Depth

Station Depth Elevation

Earthquake Activity

City Distance Mag. Time & Date
Minimum magnitude displayed is 2.5.

Coastal Water Temperatures

Place Temperature

Stations

Nearby Weather Stations

Station Location Temp. Windchill Dew Point Humidity Wind Precip. Elev Updated Type
                   

Watches & Warnings

Flood Watch
Issued: 9:42 PM EDT Jul. 21, 2017 – National Weather Service

The National Weather Service in northern Indiana has issued a
* Flood Watch for
the Tiffin River near Stryker.
* From late Monday night until further notice.
* At 9 PM Friday the stage was 4.0 feet and falling.
* Flooding is possible.
* Flood stage is 11.0 feet.
* Forecast... if current precipitation forecasts hold... the river may
rise to near 12.0 feet very early Wednesday morning.



Lat... Lon 4130 8444 4149 8446 4159 8439 4159 8429
      4130 8438